sensor_id;sensor_type;location;lat;lon;timestamp;P1;durP1;ratioP1;P2;durP2;ratioP2
4915;SDS011;70796;52.406;13.230;2023-12-20T00:00:58;6.10;;;5.50;;
4915;SDS011;70796;52.406;13.230;2023-12-20T00:03:25;6.83;;;5.50;;
4915;SDS011;70796;52.406;13.230;2023-12-20T00:05:52;7.20;;;5.47;;
4915;SDS011;70796;52.406;13.230;2023-12-20T00:08:18;5.67;;;5.13;;
4915;SDS011;70796;52.406;13.230;2023-12-20T00:10:46;7.30;;;5.73;;
4915;SDS011;70796;52.406;13.230;2023-12-20T00:13:12;5.73;;;5.17;;
4915;SDS011;70796;52.406;13.230;2023-12-20T00:15:39;7.90;;;5.40;;
4915;SDS011;70796;52.406;13.230;2023-12-20T00:18:05;6.40;;;5.80;;
4915;SDS011;70796;52.406;13.230;2023-12-20T00:20:32;6.30;;;5.70;;
4915;SDS011;70796;52.406;13.230;2023-12-20T00:22:59;6.67;;;5.63;;
4915;SDS011;70796;52.406;13.230;2023-12-20T00:25:25;7.00;;;5.93;;
4915;SDS011;70796;52.406;13.230;2023-12-20T00:27:53;7.00;;;5.70;;
4915;SDS011;70796;52.406;13.230;2023-12-20T00:30:19;6.50;;;5.47;;
4915;SDS011;70796;52.406;13.230;2023-12-20T00:32:45;7.50;;;5.00;;
4915;SDS011;70796;52.406;13.230;2023-12-20T00:35:13;6.20;;;5.60;;
4915;SDS011;70796;52.406;13.230;2023-12-20T00:37:40;6.60;;;5.93;;
4915;SDS011;70796;52.406;13.230;2023-12-20T00:40:06;5.67;;;5.17;;
4915;SDS011;70796;52.406;13.230;2023-12-20T00:42:33;9.67;;;5.57;;
4915;SDS011;70796;52.406;13.230;2023-12-20T00:45:00;5.30;;;4.80;;
4915;SDS011;70796;52.406;13.230;2023-12-20T00:47:26;5.90;;;5.33;;
4915;SDS011;70796;52.406;13.230;2023-12-20T00:49:53;7.87;;;5.50;;
4915;SDS011;70796;52.406;13.230;2023-12-20T00:52:19;5.63;;;5.13;;
4915;SDS011;70796;52.406;13.230;2023-12-20T00:54:46;6.40;;;5.10;;
4915;SDS011;70796;52.406;13.230;2023-12-20T00:57:13;5.47;;;4.97;;
4915;SDS011;70796;52.406;13.230;2023-12-20T00:59:39;5.37;;;4.87;;
4915;SDS011;70796;52.406;13.230;2023-12-20T01:02:08;5.20;;;4.80;;
4915;SDS011;70796;52.406;13.230;2023-12-20T01:04:35;5.70;;;5.10;;
4915;SDS011;70796;52.406;13.230;2023-12-20T01:07:01;5.30;;;4.80;;
4915;SDS011;70796;52.406;13.230;2023-12-20T01:09:28;5.90;;;4.83;;
4915;SDS011;70796;52.406;13.230;2023-12-20T01:11:55;4.83;;;4.40;;
4915;SDS011;70796;52.406;13.230;2023-12-20T01:14:22;5.33;;;4.83;;
4915;SDS011;70796;52.406;13.230;2023-12-20T01:16:48;5.17;;;4.70;;
4915;SDS011;70796;52.406;13.230;2023-12-20T01:19:15;5.50;;;5.00;;
4915;SDS011;70796;52.406;13.230;2023-12-20T01:21:42;5.07;;;4.57;;
4915;SDS011;70796;52.406;13.230;2023-12-20T01:24:09;4.73;;;4.33;;
4915;SDS011;70796;52.406;13.230;2023-12-20T01:26:35;5.23;;;4.73;;
4915;SDS011;70796;52.406;13.230;2023-12-20T01:29:02;5.87;;;5.27;;
4915;SDS011;70796;52.406;13.230;2023-12-20T01:31:28;5.17;;;4.67;;
4915;SDS011;70796;52.406;13.230;2023-12-20T01:33:55;5.50;;;5.00;;
4915;SDS011;70796;52.406;13.230;2023-12-20T01:36:22;5.07;;;4.57;;
4915;SDS011;70796;52.406;13.230;2023-12-20T01:38:49;4.87;;;4.47;;
4915;SDS011;70796;52.406;13.230;2023-12-20T01:41:15;5.70;;;5.10;;
4915;SDS011;70796;52.406;13.230;2023-12-20T01:43:42;4.47;;;4.10;;
4915;SDS011;70796;52.406;13.230;2023-12-20T01:46:16;5.03;;;4.53;;
4915;SDS011;70796;52.406;13.230;2023-12-20T01:48:43;9.00;;;4.37;;
4915;SDS011;70796;52.406;13.230;2023-12-20T01:51:10;5.60;;;5.10;;
4915;SDS011;70796;52.406;13.230;2023-12-20T01:53:38;5.60;;;5.10;;
4915;SDS011;70796;52.406;13.230;2023-12-20T01:56:04;5.60;;;5.10;;
4915;SDS011;70796;52.406;13.230;2023-12-20T01:58:31;5.60;;;5.10;;
4915;SDS011;70796;52.406;13.230;2023-12-20T02:00:58;5.77;;;5.20;;
4915;SDS011;70796;52.406;13.230;2023-12-20T02:03:25;7.20;;;5.90;;
4915;SDS011;70796;52.406;13.230;2023-12-20T02:05:52;5.93;;;5.33;;
4915;SDS011;70796;52.406;13.230;2023-12-20T02:08:19;6.50;;;5.90;;
4915;SDS011;70796;52.406;13.230;2023-12-20T02:10:45;8.40;;;5.60;;
4915;SDS011;70796;52.406;13.230;2023-12-20T02:13:12;7.10;;;6.40;;
4915;SDS011;70796;52.406;13.230;2023-12-20T02:15:39;6.40;;;5.80;;
4915;SDS011;70796;52.406;13.230;2023-12-20T02:18:07;6.80;;;6.10;;
4915;SDS011;70796;52.406;13.230;2023-12-20T02:20:34;7.60;;;6.80;;
4915;SDS011;70796;52.406;13.230;2023-12-20T02:23:00;7.80;;;7.00;;
4915;SDS011;70796;52.406;13.230;2023-12-20T02:25:27;7.37;;;6.60;;
4915;SDS011;70796;52.406;13.230;2023-12-20T02:27:54;10.70;;;6.43;;
4915;SDS011;70796;52.406;13.230;2023-12-20T02:30:21;6.97;;;6.27;;
4915;SDS011;70796;52.406;13.230;2023-12-20T02:32:48;7.83;;;7.07;;
4915;SDS011;70796;52.406;13.230;2023-12-20T02:35:17;11.50;;;7.90;;
4915;SDS011;70796;52.406;13.230;2023-12-20T02:37:44;11.33;;;6.70;;
4915;SDS011;70796;52.406;13.230;2023-12-20T02:40:11;8.43;;;7.53;;
4915;SDS011;70796;52.406;13.230;2023-12-20T02:42:38;11.73;;;8.23;;
4915;SDS011;70796;52.406;13.230;2023-12-20T02:45:04;11.37;;;8.07;;
4915;SDS011;70796;52.406;13.230;2023-12-20T02:47:31;8.50;;;7.30;;
4915;SDS011;70796;52.406;13.230;2023-12-20T02:49:58;9.50;;;7.57;;
4915;SDS011;70796;52.406;13.230;2023-12-20T02:52:25;10.57;;;7.97;;
4915;SDS011;70796;52.406;13.230;2023-12-20T02:54:52;9.13;;;7.77;;
4915;SDS011;70796;52.406;13.230;2023-12-20T02:57:19;10.60;;;8.27;;
4915;SDS011;70796;52.406;13.230;2023-12-20T02:59:45;10.87;;;8.73;;
4915;SDS011;70796;52.406;13.230;2023-12-20T03:02:11;9.73;;;8.17;;
4915;SDS011;70796;52.406;13.230;2023-12-20T03:04:38;10.43;;;7.50;;
4915;SDS011;70796;52.406;13.230;2023-12-20T03:07:05;10.90;;;6.90;;
4915;SDS011;70796;52.406;13.230;2023-12-20T03:09:31;10.53;;;7.90;;
4915;SDS011;70796;52.406;13.230;2023-12-20T03:12:20;7.47;;;6.67;;
4915;SDS011;70796;52.406;13.230;2023-12-20T03:14:47;9.33;;;7.37;;
4915;SDS011;70796;52.406;13.230;2023-12-20T03:17:13;9.47;;;6.90;;
4915;SDS011;70796;52.406;13.230;2023-12-20T03:19:40;9.30;;;6.70;;
4915;SDS011;70796;52.406;13.230;2023-12-20T03:22:07;12.20;;;6.77;;
4915;SDS011;70796;52.406;13.230;2023-12-20T03:24:34;11.63;;;7.10;;
4915;SDS011;70796;52.406;13.230;2023-12-20T03:27:00;10.10;;;6.63;;
4915;SDS011;70796;52.406;13.230;2023-12-20T03:29:27;10.93;;;6.30;;
4915;SDS011;70796;52.406;13.230;2023-12-20T03:31:53;27.17;;;6.53;;
4915;SDS011;70796;52.406;13.230;2023-12-20T03:34:22;7.00;;;5.93;;
4915;SDS011;70796;52.406;13.230;2023-12-20T03:36:48;10.10;;;6.60;;
4915;SDS011;70796;52.406;13.230;2023-12-20T03:39:14;7.70;;;5.90;;
4915;SDS011;70796;52.406;13.230;2023-12-20T03:41:41;12.87;;;7.17;;
4915;SDS011;70796;52.406;13.230;2023-12-20T03:44:08;14.20;;;7.27;;
4915;SDS011;70796;52.406;13.230;2023-12-20T03:46:35;8.53;;;7.47;;
4915;SDS011;70796;52.406;13.230;2023-12-20T03:49:01;13.03;;;7.70;;
4915;SDS011;70796;52.406;13.230;2023-12-20T03:51:30;12.77;;;7.70;;
4915;SDS011;70796;52.406;13.230;2023-12-20T03:53:56;13.80;;;8.27;;
4915;SDS011;70796;52.406;13.230;2023-12-20T03:56:23;12.60;;;7.60;;
4915;SDS011;70796;52.406;13.230;2023-12-20T03:58:50;14.33;;;7.40;;
4915;SDS011;70796;52.406;13.230;2023-12-20T04:01:17;11.47;;;7.23;;
4915;SDS011;70796;52.406;13.230;2023-12-20T04:03:44;11.83;;;7.30;;
4915;SDS011;70796;52.406;13.230;2023-12-20T04:06:16;12.97;;;7.00;;
4915;SDS011;70796;52.406;13.230;2023-12-20T04:08:42;11.43;;;6.50;;
4915;SDS011;70796;52.406;13.230;2023-12-20T04:11:09;11.20;;;6.50;;
4915;SDS011;70796;52.406;13.230;2023-12-20T04:13:35;13.00;;;6.37;;
4915;SDS011;70796;52.406;13.230;2023-12-20T04:16:02;8.03;;;6.30;;
4915;SDS011;70796;52.406;13.230;2023-12-20T04:18:28;10.30;;;5.90;;
4915;SDS011;70796;52.406;13.230;2023-12-20T04:20:55;11.70;;;6.40;;
4915;SDS011;70796;52.406;13.230;2023-12-20T04:23:22;7.40;;;5.63;;
4915;SDS011;70796;52.406;13.230;2023-12-20T04:25:49;11.53;;;5.90;;
4915;SDS011;70796;52.406;13.230;2023-12-20T04:28:16;12.07;;;5.50;;
4915;SDS011;70796;52.406;13.230;2023-12-20T04:30:43;7.97;;;5.20;;
4915;SDS011;70796;52.406;13.230;2023-12-20T04:33:11;12.53;;;5.03;;
4915;SDS011;70796;52.406;13.230;2023-12-20T04:35:38;14.93;;;4.60;;
4915;SDS011;70796;52.406;13.230;2023-12-20T04:38:04;9.43;;;4.97;;
4915;SDS011;70796;52.406;13.230;2023-12-20T04:40:30;9.50;;;4.13;;
4915;SDS011;70796;52.406;13.230;2023-12-20T04:42:57;14.80;;;4.97;;
4915;SDS011;70796;52.406;13.230;2023-12-20T04:45:24;7.80;;;4.03;;
4915;SDS011;70796;52.406;13.230;2023-12-20T04:47:51;8.63;;;4.13;;
4915;SDS011;70796;52.406;13.230;2023-12-20T04:50:18;16.83;;;4.40;;
4915;SDS011;70796;52.406;13.230;2023-12-20T04:52:46;10.40;;;3.13;;
4915;SDS011;70796;52.406;13.230;2023-12-20T04:55:12;9.70;;;3.60;;
4915;SDS011;70796;52.406;13.230;2023-12-20T04:57:39;9.97;;;3.80;;
4915;SDS011;70796;52.406;13.230;2023-12-20T05:00:05;12.93;;;3.17;;
4915;SDS011;70796;52.406;13.230;2023-12-20T05:02:39;14.53;;;4.17;;
4915;SDS011;70796;52.406;13.230;2023-12-20T05:05:05;10.03;;;3.20;;
4915;SDS011;70796;52.406;13.230;2023-12-20T05:07:31;14.00;;;3.20;;
4915;SDS011;70796;52.406;13.230;2023-12-20T05:09:58;13.23;;;3.33;;
4915;SDS011;70796;52.406;13.230;2023-12-20T05:12:25;12.87;;;2.60;;
4915;SDS011;70796;52.406;13.230;2023-12-20T05:14:51;6.57;;;2.50;;
4915;SDS011;70796;52.406;13.230;2023-12-20T05:17:18;12.40;;;2.70;;
4915;SDS011;70796;52.406;13.230;2023-12-20T05:19:46;13.63;;;2.43;;
4915;SDS011;70796;52.406;13.230;2023-12-20T05:22:12;10.90;;;2.43;;
4915;SDS011;70796;52.406;13.230;2023-12-20T05:24:39;13.27;;;2.80;;
4915;SDS011;70796;52.406;13.230;2023-12-20T05:27:05;13.10;;;3.10;;
4915;SDS011;70796;52.406;13.230;2023-12-20T05:29:32;10.93;;;2.30;;
4915;SDS011;70796;52.406;13.230;2023-12-20T05:31:58;8.10;;;2.10;;
4915;SDS011;70796;52.406;13.230;2023-12-20T05:34:25;24.50;;;2.30;;
4915;SDS011;70796;52.406;13.230;2023-12-20T05:36:52;14.20;;;2.13;;
4915;SDS011;70796;52.406;13.230;2023-12-20T05:39:19;13.43;;;2.50;;
4915;SDS011;70796;52.406;13.230;2023-12-20T05:41:46;14.50;;;2.17;;
4915;SDS011;70796;52.406;13.230;2023-12-20T05:44:13;14.13;;;2.20;;
4915;SDS011;70796;52.406;13.230;2023-12-20T05:46:39;15.30;;;2.37;;
4915;SDS011;70796;52.406;13.230;2023-12-20T05:49:06;6.13;;;2.33;;
4915;SDS011;70796;52.406;13.230;2023-12-20T05:51:33;12.73;;;2.80;;
4915;SDS011;70796;52.406;13.230;2023-12-20T05:53:59;14.37;;;3.10;;
4915;SDS011;70796;52.406;13.230;2023-12-20T05:56:26;15.97;;;2.23;;
4915;SDS011;70796;52.406;13.230;2023-12-20T05:58:52;11.90;;;2.30;;
4915;SDS011;70796;52.406;13.230;2023-12-20T06:01:20;21.43;;;3.90;;
4915;SDS011;70796;52.406;13.230;2023-12-20T06:03:47;11.93;;;2.43;;
4915;SDS011;70796;52.406;13.230;2023-12-20T06:06:14;7.70;;;2.47;;
4915;SDS011;70796;52.406;13.230;2023-12-20T06:08:42;4.50;;;2.20;;
4915;SDS011;70796;52.406;13.230;2023-12-20T06:11:10;19.00;;;3.27;;
4915;SDS011;70796;52.406;13.230;2023-12-20T06:13:36;9.03;;;2.47;;
4915;SDS011;70796;52.406;13.230;2023-12-20T06:16:04;17.53;;;2.90;;
4915;SDS011;70796;52.406;13.230;2023-12-20T06:18:31;8.23;;;2.20;;
4915;SDS011;70796;52.406;13.230;2023-12-20T06:20:57;11.10;;;2.53;;
4915;SDS011;70796;52.406;13.230;2023-12-20T06:23:24;26.67;;;3.50;;
4915;SDS011;70796;52.406;13.230;2023-12-20T06:25:50;9.67;;;2.67;;
4915;SDS011;70796;52.406;13.230;2023-12-20T06:28:16;10.20;;;3.43;;
4915;SDS011;70796;52.406;13.230;2023-12-20T06:30:43;17.00;;;3.03;;
4915;SDS011;70796;52.406;13.230;2023-12-20T06:33:09;15.73;;;2.43;;
4915;SDS011;70796;52.406;13.230;2023-12-20T06:35:39;14.20;;;2.90;;
4915;SDS011;70796;52.406;13.230;2023-12-20T06:38:05;4.57;;;2.80;;
4915;SDS011;70796;52.406;13.230;2023-12-20T06:40:31;10.63;;;2.60;;
4915;SDS011;70796;52.406;13.230;2023-12-20T06:42:58;10.47;;;2.87;;
4915;SDS011;70796;52.406;13.230;2023-12-20T06:45:41;8.47;;;2.90;;
4915;SDS011;70796;52.406;13.230;2023-12-20T06:48:07;12.50;;;3.60;;
4915;SDS011;70796;52.406;13.230;2023-12-20T06:50:33;11.33;;;3.20;;
4915;SDS011;70796;52.406;13.230;2023-12-20T06:53:00;13.77;;;3.17;;
4915;SDS011;70796;52.406;13.230;2023-12-20T06:55:33;10.63;;;3.07;;
4915;SDS011;70796;52.406;13.230;2023-12-20T06:58:00;23.37;;;3.33;;
4915;SDS011;70796;52.406;13.230;2023-12-20T07:00:27;15.13;;;3.70;;
4915;SDS011;70796;52.406;13.230;2023-12-20T07:02:53;10.47;;;3.73;;
4915;SDS011;70796;52.406;13.230;2023-12-20T07:05:19;11.07;;;3.30;;
4915;SDS011;70796;52.406;13.230;2023-12-20T07:07:46;9.03;;;2.83;;
4915;SDS011;70796;52.406;13.230;2023-12-20T07:10:14;17.60;;;3.80;;
4915;SDS011;70796;52.406;13.230;2023-12-20T07:12:41;14.43;;;3.63;;
4915;SDS011;70796;52.406;13.230;2023-12-20T07:15:08;20.23;;;3.57;;
4915;SDS011;70796;52.406;13.230;2023-12-20T07:17:34;16.23;;;2.90;;
4915;SDS011;70796;52.406;13.230;2023-12-20T07:20:04;9.40;;;3.10;;
4915;SDS011;70796;52.406;13.230;2023-12-20T07:22:31;12.33;;;3.27;;
4915;SDS011;70796;52.406;13.230;2023-12-20T07:24:58;9.93;;;2.50;;
4915;SDS011;70796;52.406;13.230;2023-12-20T07:27:25;12.60;;;2.63;;
4915;SDS011;70796;52.406;13.230;2023-12-20T07:29:52;4.47;;;2.13;;
4915;SDS011;70796;52.406;13.230;2023-12-20T07:32:18;15.63;;;2.33;;
4915;SDS011;70796;52.406;13.230;2023-12-20T07:34:44;23.00;;;3.23;;
4915;SDS011;70796;52.406;13.230;2023-12-20T07:37:12;20.43;;;2.57;;
4915;SDS011;70796;52.406;13.230;2023-12-20T07:39:40;9.90;;;3.07;;
4915;SDS011;70796;52.406;13.230;2023-12-20T07:42:07;9.77;;;2.90;;
4915;SDS011;70796;52.406;13.230;2023-12-20T07:44:34;9.57;;;2.17;;
4915;SDS011;70796;52.406;13.230;2023-12-20T07:47:02;11.17;;;2.10;;
4915;SDS011;70796;52.406;13.230;2023-12-20T07:49:30;16.47;;;2.40;;
4915;SDS011;70796;52.406;13.230;2023-12-20T07:51:57;9.97;;;2.13;;
4915;SDS011;70796;52.406;13.230;2023-12-20T07:54:23;11.67;;;2.30;;
4915;SDS011;70796;52.406;13.230;2023-12-20T07:56:50;11.23;;;2.47;;
4915;SDS011;70796;52.406;13.230;2023-12-20T07:59:17;8.20;;;2.27;;
4915;SDS011;70796;52.406;13.230;2023-12-20T08:01:56;11.60;;;2.40;;
4915;SDS011;70796;52.406;13.230;2023-12-20T08:04:27;10.23;;;1.90;;
4915;SDS011;70796;52.406;13.230;2023-12-20T08:06:56;10.00;;;2.20;;
4915;SDS011;70796;52.406;13.230;2023-12-20T08:09:24;6.77;;;1.97;;
4915;SDS011;70796;52.406;13.230;2023-12-20T08:11:54;11.83;;;2.40;;
4915;SDS011;70796;52.406;13.230;2023-12-20T08:14:23;13.73;;;2.73;;
4915;SDS011;70796;52.406;13.230;2023-12-20T08:16:52;15.73;;;2.77;;
4915;SDS011;70796;52.406;13.230;2023-12-20T08:19:22;11.60;;;2.40;;
4915;SDS011;70796;52.406;13.230;2023-12-20T08:24:45;7.17;;;1.73;;
4915;SDS011;70796;52.406;13.230;2023-12-20T08:27:12;7.97;;;1.73;;
4915;SDS011;70796;52.406;13.230;2023-12-20T08:29:40;6.23;;;1.87;;
4915;SDS011;70796;52.406;13.230;2023-12-20T08:34:59;10.00;;;2.47;;
4915;SDS011;70796;52.406;13.230;2023-12-20T08:37:27;5.97;;;2.43;;
4915;SDS011;70796;52.406;13.230;2023-12-20T08:39:56;6.60;;;2.03;;
4915;SDS011;70796;52.406;13.230;2023-12-20T08:42:24;11.83;;;2.07;;
4915;SDS011;70796;52.406;13.230;2023-12-20T08:44:58;8.60;;;2.40;;
4915;SDS011;70796;52.406;13.230;2023-12-20T08:47:28;12.80;;;2.77;;
4915;SDS011;70796;52.406;13.230;2023-12-20T08:49:59;7.37;;;2.20;;
4915;SDS011;70796;52.406;13.230;2023-12-20T08:52:27;8.93;;;1.80;;
4915;SDS011;70796;52.406;13.230;2023-12-20T08:54:53;7.97;;;2.33;;
4915;SDS011;70796;52.406;13.230;2023-12-20T08:57:21;10.20;;;1.67;;
4915;SDS011;70796;52.406;13.230;2023-12-20T08:59:49;13.73;;;2.33;;
4915;SDS011;70796;52.406;13.230;2023-12-20T09:02:16;11.37;;;2.30;;
4915;SDS011;70796;52.406;13.230;2023-12-20T09:04:43;10.43;;;2.23;;
4915;SDS011;70796;52.406;13.230;2023-12-20T09:07:23;7.50;;;2.30;;
4915;SDS011;70796;52.406;13.230;2023-12-20T09:09:51;15.17;;;2.43;;
4915;SDS011;70796;52.406;13.230;2023-12-20T09:12:19;13.30;;;1.73;;
4915;SDS011;70796;52.406;13.230;2023-12-20T09:14:46;7.60;;;1.83;;
4915;SDS011;70796;52.406;13.230;2023-12-20T09:17:15;19.30;;;1.97;;
4915;SDS011;70796;52.406;13.230;2023-12-20T09:19:42;8.83;;;1.63;;
4915;SDS011;70796;52.406;13.230;2023-12-20T09:22:10;15.77;;;3.10;;
4915;SDS011;70796;52.406;13.230;2023-12-20T09:24:37;14.53;;;2.90;;
4915;SDS011;70796;52.406;13.230;2023-12-20T09:27:05;9.47;;;2.03;;
4915;SDS011;70796;52.406;13.230;2023-12-20T09:29:32;14.23;;;1.90;;
4915;SDS011;70796;52.406;13.230;2023-12-20T09:31:58;10.03;;;1.83;;
4915;SDS011;70796;52.406;13.230;2023-12-20T09:34:26;8.90;;;2.20;;
4915;SDS011;70796;52.406;13.230;2023-12-20T09:36:53;4.13;;;1.40;;
4915;SDS011;70796;52.406;13.230;2023-12-20T09:39:20;9.67;;;2.10;;
4915;SDS011;70796;52.406;13.230;2023-12-20T09:41:51;9.93;;;2.80;;
4915;SDS011;70796;52.406;13.230;2023-12-20T09:44:21;7.40;;;2.00;;
4915;SDS011;70796;52.406;13.230;2023-12-20T09:46:49;8.60;;;2.10;;
4915;SDS011;70796;52.406;13.230;2023-12-20T09:49:18;11.77;;;2.20;;
4915;SDS011;70796;52.406;13.230;2023-12-20T09:51:44;16.20;;;2.67;;
4915;SDS011;70796;52.406;13.230;2023-12-20T09:54:15;15.67;;;2.23;;
4915;SDS011;70796;52.406;13.230;2023-12-20T09:56:42;11.67;;;2.13;;
4915;SDS011;70796;52.406;13.230;2023-12-20T09:59:11;7.43;;;2.17;;
4915;SDS011;70796;52.406;13.230;2023-12-20T10:01:38;10.93;;;2.20;;
4915;SDS011;70796;52.406;13.230;2023-12-20T10:04:05;9.43;;;1.77;;
4915;SDS011;70796;52.406;13.230;2023-12-20T10:06:39;6.00;;;1.57;;
4915;SDS011;70796;52.406;13.230;2023-12-20T10:09:06;16.70;;;2.30;;
4915;SDS011;70796;52.406;13.230;2023-12-20T10:11:32;8.57;;;2.07;;
4915;SDS011;70796;52.406;13.230;2023-12-20T10:13:59;14.53;;;2.43;;
4915;SDS011;70796;52.406;13.230;2023-12-20T10:16:26;10.50;;;2.03;;
4915;SDS011;70796;52.406;13.230;2023-12-20T10:18:53;8.10;;;2.20;;
4915;SDS011;70796;52.406;13.230;2023-12-20T10:21:20;7.47;;;2.23;;
4915;SDS011;70796;52.406;13.230;2023-12-20T10:23:46;11.20;;;2.80;;
4915;SDS011;70796;52.406;13.230;2023-12-20T10:26:24;8.30;;;2.20;;
4915;SDS011;70796;52.406;13.230;2023-12-20T10:28:50;8.63;;;2.03;;
4915;SDS011;70796;52.406;13.230;2023-12-20T10:31:25;10.80;;;1.93;;
4915;SDS011;70796;52.406;13.230;2023-12-20T10:33:52;8.57;;;2.03;;
4915;SDS011;70796;52.406;13.230;2023-12-20T10:36:18;6.83;;;1.80;;
4915;SDS011;70796;52.406;13.230;2023-12-20T10:38:45;7.80;;;2.20;;
4915;SDS011;70796;52.406;13.230;2023-12-20T10:41:14;16.47;;;2.00;;
4915;SDS011;70796;52.406;13.230;2023-12-20T10:43:43;11.07;;;2.67;;
4915;SDS011;70796;52.406;13.230;2023-12-20T10:46:10;8.17;;;2.10;;
4915;SDS011;70796;52.406;13.230;2023-12-20T10:48:41;21.60;;;2.37;;
4915;SDS011;70796;52.406;13.230;2023-12-20T10:51:09;6.17;;;1.90;;
4915;SDS011;70796;52.406;13.230;2023-12-20T10:53:36;8.83;;;2.53;;
4915;SDS011;70796;52.406;13.230;2023-12-20T10:56:03;11.53;;;2.37;;
4915;SDS011;70796;52.406;13.230;2023-12-20T10:58:30;6.17;;;2.20;;
4915;SDS011;70796;52.406;13.230;2023-12-20T11:01:00;9.50;;;2.20;;
4915;SDS011;70796;52.406;13.230;2023-12-20T11:03:28;8.70;;;2.50;;
4915;SDS011;70796;52.406;13.230;2023-12-20T11:06:07;9.10;;;2.77;;
4915;SDS011;70796;52.406;13.230;2023-12-20T11:08:39;22.33;;;3.27;;
4915;SDS011;70796;52.406;13.230;2023-12-20T11:12:09;10.13;;;3.00;;
4915;SDS011;70796;52.406;13.230;2023-12-20T11:14:05;15.10;;;2.80;;
4915;SDS011;70796;52.406;13.230;2023-12-20T11:16:37;12.60;;;2.57;;
4915;SDS011;70796;52.406;13.230;2023-12-20T11:19:17;12.93;;;2.57;;
4915;SDS011;70796;52.406;13.230;2023-12-20T11:21:44;9.60;;;2.00;;
4915;SDS011;70796;52.406;13.230;2023-12-20T11:24:11;8.00;;;2.60;;
4915;SDS011;70796;52.406;13.230;2023-12-20T11:26:38;10.33;;;1.73;;
4915;SDS011;70796;52.406;13.230;2023-12-20T11:29:29;11.73;;;2.10;;
4915;SDS011;70796;52.406;13.230;2023-12-20T11:31:55;8.37;;;2.30;;
4915;SDS011;70796;52.406;13.230;2023-12-20T11:34:21;14.03;;;2.97;;
4915;SDS011;70796;52.406;13.230;2023-12-20T11:36:48;8.63;;;2.10;;
4915;SDS011;70796;52.406;13.230;2023-12-20T11:39:17;10.33;;;2.30;;
4915;SDS011;70796;52.406;13.230;2023-12-20T11:41:46;7.17;;;2.30;;
4915;SDS011;70796;52.406;13.230;2023-12-20T11:44:15;6.90;;;2.10;;
4915;SDS011;70796;52.406;13.230;2023-12-20T11:46:44;9.30;;;2.20;;
4915;SDS011;70796;52.406;13.230;2023-12-20T11:49:11;9.87;;;2.33;;
4915;SDS011;70796;52.406;13.230;2023-12-20T11:51:40;11.43;;;2.30;;
4915;SDS011;70796;52.406;13.230;2023-12-20T11:54:08;7.60;;;1.90;;
4915;SDS011;70796;52.406;13.230;2023-12-20T11:56:35;7.57;;;2.50;;
4915;SDS011;70796;52.406;13.230;2023-12-20T11:59:04;5.73;;;1.90;;
4915;SDS011;70796;52.406;13.230;2023-12-20T12:01:48;13.30;;;2.23;;
4915;SDS011;70796;52.406;13.230;2023-12-20T12:04:16;10.80;;;2.67;;
4915;SDS011;70796;52.406;13.230;2023-12-20T12:06:44;8.50;;;2.83;;
4915;SDS011;70796;52.406;13.230;2023-12-20T12:09:11;9.80;;;2.10;;
4915;SDS011;70796;52.406;13.230;2023-12-20T12:11:37;9.00;;;2.10;;
4915;SDS011;70796;52.406;13.230;2023-12-20T12:14:04;6.33;;;2.00;;
4915;SDS011;70796;52.406;13.230;2023-12-20T12:16:30;13.07;;;2.60;;
4915;SDS011;70796;52.406;13.230;2023-12-20T12:18:57;10.43;;;2.80;;
4915;SDS011;70796;52.406;13.230;2023-12-20T12:21:24;10.43;;;2.60;;
4915;SDS011;70796;52.406;13.230;2023-12-20T12:24:08;14.73;;;2.30;;
4915;SDS011;70796;52.406;13.230;2023-12-20T12:26:34;9.23;;;2.07;;
4915;SDS011;70796;52.406;13.230;2023-12-20T12:29:01;5.37;;;1.83;;
4915;SDS011;70796;52.406;13.230;2023-12-20T12:31:27;10.70;;;1.90;;
4915;SDS011;70796;52.406;13.230;2023-12-20T12:33:55;7.53;;;2.17;;
4915;SDS011;70796;52.406;13.230;2023-12-20T12:36:22;8.30;;;1.93;;
4915;SDS011;70796;52.406;13.230;2023-12-20T12:38:48;8.73;;;2.23;;
4915;SDS011;70796;52.406;13.230;2023-12-20T12:41:13;7.30;;;2.10;;
4915;SDS011;70796;52.406;13.230;2023-12-20T12:43:41;7.50;;;2.67;;
4915;SDS011;70796;52.406;13.230;2023-12-20T12:46:07;10.97;;;3.13;;
4915;SDS011;70796;52.406;13.230;2023-12-20T12:48:35;7.60;;;2.27;;
4915;SDS011;70796;52.406;13.230;2023-12-20T12:51:01;4.73;;;2.27;;
4915;SDS011;70796;52.406;13.230;2023-12-20T12:53:28;3.83;;;2.50;;
4915;SDS011;70796;52.406;13.230;2023-12-20T12:55:54;6.53;;;2.47;;
4915;SDS011;70796;52.406;13.230;2023-12-20T12:58:21;7.80;;;2.40;;
4915;SDS011;70796;52.406;13.230;2023-12-20T13:00:48;20.43;;;2.83;;
4915;SDS011;70796;52.406;13.230;2023-12-20T13:03:15;16.63;;;3.07;;
4915;SDS011;70796;52.406;13.230;2023-12-20T13:05:42;6.60;;;2.60;;
4915;SDS011;70796;52.406;13.230;2023-12-20T13:08:12;7.00;;;2.80;;
4915;SDS011;70796;52.406;13.230;2023-12-20T13:10:38;10.93;;;2.90;;
4915;SDS011;70796;52.406;13.230;2023-12-20T13:13:06;9.87;;;2.83;;
4915;SDS011;70796;52.406;13.230;2023-12-20T13:15:33;11.73;;;2.83;;
4915;SDS011;70796;52.406;13.230;2023-12-20T13:18:00;7.27;;;2.53;;
4915;SDS011;70796;52.406;13.230;2023-12-20T13:20:26;9.50;;;3.40;;
4915;SDS011;70796;52.406;13.230;2023-12-20T13:22:53;10.23;;;2.87;;
4915;SDS011;70796;52.406;13.230;2023-12-20T13:25:19;8.63;;;2.80;;
4915;SDS011;70796;52.406;13.230;2023-12-20T13:27:45;12.90;;;2.93;;
4915;SDS011;70796;52.406;13.230;2023-12-20T13:30:12;4.63;;;2.60;;
4915;SDS011;70796;52.406;13.230;2023-12-20T13:32:39;10.27;;;2.27;;
4915;SDS011;70796;52.406;13.230;2023-12-20T13:35:06;6.80;;;2.73;;
4915;SDS011;70796;52.406;13.230;2023-12-20T13:37:32;4.07;;;2.27;;
4915;SDS011;70796;52.406;13.230;2023-12-20T13:39:58;6.77;;;2.30;;
4915;SDS011;70796;52.406;13.230;2023-12-20T13:42:24;6.10;;;1.20;;
4915;SDS011;70796;52.406;13.230;2023-12-20T13:44:53;7.17;;;1.60;;
4915;SDS011;70796;52.406;13.230;2023-12-20T13:47:19;3.47;;;1.50;;
4915;SDS011;70796;52.406;13.230;2023-12-20T13:49:49;5.03;;;0.90;;
4915;SDS011;70796;52.406;13.230;2023-12-20T13:52:16;1.07;;;0.80;;
4915;SDS011;70796;52.406;13.230;2023-12-20T13:54:44;1.03;;;0.70;;
4915;SDS011;70796;52.406;13.230;2023-12-20T13:57:11;1.33;;;1.00;;
4915;SDS011;70796;52.406;13.230;2023-12-20T13:59:56;3.13;;;0.97;;
4915;SDS011;70796;52.406;13.230;2023-12-20T14:02:25;2.40;;;0.90;;
4915;SDS011;70796;52.406;13.230;2023-12-20T14:04:52;1.87;;;0.90;;
4915;SDS011;70796;52.406;13.230;2023-12-20T14:07:19;0.80;;;0.80;;
4915;SDS011;70796;52.406;13.230;2023-12-20T14:09:45;1.70;;;1.10;;
4915;SDS011;70796;52.406;13.230;2023-12-20T14:12:12;1.47;;;1.27;;
4915;SDS011;70796;52.406;13.230;2023-12-20T14:14:39;1.90;;;0.97;;
4915;SDS011;70796;52.406;13.230;2023-12-20T14:17:05;3.00;;;1.20;;
4915;SDS011;70796;52.406;13.230;2023-12-20T14:19:35;1.67;;;1.00;;
4915;SDS011;70796;52.406;13.230;2023-12-20T14:22:01;1.37;;;0.90;;
4915;SDS011;70796;52.406;13.230;2023-12-20T14:24:29;0.87;;;0.87;;
4915;SDS011;70796;52.406;13.230;2023-12-20T14:26:55;3.13;;;1.00;;
4915;SDS011;70796;52.406;13.230;2023-12-20T14:29:26;0.90;;;0.80;;
4915;SDS011;70796;52.406;13.230;2023-12-20T14:31:53;1.73;;;1.03;;
4915;SDS011;70796;52.406;13.230;2023-12-20T14:34:19;3.27;;;1.40;;
4915;SDS011;70796;52.406;13.230;2023-12-20T14:36:46;1.57;;;1.30;;
4915;SDS011;70796;52.406;13.230;2023-12-20T14:39:12;4.93;;;1.50;;
4915;SDS011;70796;52.406;13.230;2023-12-20T14:41:39;2.37;;;1.47;;
4915;SDS011;70796;52.406;13.230;2023-12-20T14:44:08;3.20;;;1.90;;
4915;SDS011;70796;52.406;13.230;2023-12-20T14:46:36;4.67;;;1.63;;
4915;SDS011;70796;52.406;13.230;2023-12-20T14:49:05;3.57;;;1.40;;
4915;SDS011;70796;52.406;13.230;2023-12-20T14:51:32;4.10;;;1.60;;